Time;durP1;ratioP1;P1;durP2;ratioP2;P2;SDS_P1;SDS_P2;PMS_P1;PMS_P2;Temp;Humidity;BMP_temperature;BMP_pressure;BME280_temperature;BME280_humidity;BME280_pressure;Samples;Min_cycle;Max_cycle;Signal;HPM_P1;HPM_P2
2021/09/12 00:01:12;;;;;;;13.43;7.07;;;22.70;47.90;;;;;;4250554;28;20830;-53
2021/09/12 00:03:15;;;;;;;9.63;6.72;;;22.70;47.80;;;;;;4250663;28;20040;-50
2021/09/12 00:05:17;;;;;;;13.52;7.40;;;22.70;47.80;;;;;;4232682;28;20051;-50
2021/09/12 00:07:20;;;;;;;11.55;7.05;;;22.70;47.80;;;;;;4232677;28;20051;-49
2021/09/12 00:09:22;;;;;;;13.27;7.10;;;22.70;47.90;;;;;;4250236;28;20095;-53
2021/09/12 00:11:24;;;;;;;11.88;7.00;;;22.70;47.90;;;;;;4250422;28;20095;-51
2021/09/12 00:13:26;;;;;;;10.98;7.32;;;22.70;47.80;;;;;;4250432;28;20063;-53
2021/09/12 00:15:28;;;;;;;15.23;7.13;;;22.70;47.90;;;;;;4250362;28;20100;-55
2021/09/12 00:17:30;;;;;;;14.93;7.55;;;22.70;47.90;;;;;;4232526;28;20040;-55
2021/09/12 00:19:32;;;;;;;12.73;7.68;;;22.70;47.80;;;;;;4249388;28;20058;-55
2021/09/12 00:21:35;;;;;;;16.90;7.00;;;22.70;47.80;;;;;;4250178;28;20585;-55
2021/09/12 00:23:37;;;;;;;11.70;7.15;;;22.70;47.90;;;;;;4250474;28;20050;-50
2021/09/12 00:25:39;;;;;;;10.50;7.32;;;22.70;47.90;;;;;;4250249;28;20036;-56
2021/09/12 00:27:42;;;;;;;12.48;8.15;;;22.70;47.70;;;;;;4250140;28;20099;-55
2021/09/12 00:29:44;;;;;;;13.23;7.70;;;22.70;47.80;;;;;;4250158;28;20039;-56
2021/09/12 00:31:48;;;;;;;12.30;6.75;;;22.70;47.70;;;;;;4249946;28;20050;-56
2021/09/12 00:33:50;;;;;;;12.35;7.43;;;22.70;47.70;;;;;;4250154;28;20055;-56
2021/09/12 00:35:52;;;;;;;10.40;7.00;;;22.70;47.70;;;;;;4250208;28;20078;-55
2021/09/12 00:37:54;;;;;;;10.02;6.93;;;22.70;47.70;;;;;;4232420;28;20040;-55
2021/09/12 00:39:56;;;;;;;17.00;7.25;;;22.70;47.70;;;;;;4249916;28;20106;-56
2021/09/12 00:41:58;;;;;;;10.55;6.30;;;22.70;47.50;;;;;;4249872;28;20514;-56
2021/09/12 00:44:01;;;;;;;11.55;7.57;;;22.70;47.80;;;;;;4249776;28;20039;-54
2021/09/12 00:46:11;;;;;;;11.55;7.32;;;22.70;47.60;;;;;;4249796;28;20070;-55
2021/09/12 00:48:17;;;;;;;12.32;6.70;;;22.60;47.60;;;;;;4249807;28;20062;-56
2021/09/12 00:50:19;;;;;;;10.25;6.82;;;22.70;47.80;;;;;;4249699;28;20046;-55
2021/09/12 00:52:23;;;;;;;14.30;7.13;;;22.70;47.50;;;;;;4249753;28;20100;-55
2021/09/12 00:54:26;;;;;;;13.40;7.67;;;22.60;47.70;;;;;;4249830;28;20881;-55
2021/09/12 00:56:29;;;;;;;10.27;7.15;;;22.70;47.50;;;;;;4249749;28;20122;-56
2021/09/12 00:58:32;;;;;;;9.88;6.43;;;22.70;47.70;;;;;;4249657;28;20052;-55
2021/09/12 01:00:34;;;;;;;12.25;6.88;;;22.60;47.50;;;;;;4249508;28;20098;-56
2021/09/12 01:02:37;;;;;;;10.55;7.13;;;22.60;47.60;;;;;;4249489;28;20048;-55
2021/09/12 01:04:40;;;;;;;9.70;6.82;;;22.60;47.60;;;;;;4249438;28;20040;-55
2021/09/12 01:06:42;;;;;;;13.50;6.88;;;22.60;47.50;;;;;;4249406;28;20097;-54
2021/09/12 01:08:44;;;;;;;11.13;7.05;;;22.60;47.70;;;;;;4249706;28;20092;-58
2021/09/12 01:10:48;;;;;;;10.05;6.50;;;22.70;47.80;;;;;;4249444;28;20035;-56
2021/09/12 01:12:50;;;;;;;9.65;6.97;;;22.60;47.90;;;;;;4249229;28;20051;-56
2021/09/12 01:14:55;;;;;;;11.40;6.85;;;22.60;47.90;;;;;;4249375;28;20039;-56
2021/09/12 01:16:58;;;;;;;7.85;6.03;;;22.60;47.80;;;;;;4248643;28;20103;-56
2021/09/12 01:19:00;;;;;;;9.00;7.32;;;22.60;47.70;;;;;;4249290;28;20103;-56
2021/09/12 01:21:02;;;;;;;8.90;6.50;;;22.60;47.60;;;;;;4249259;28;20134;-56
2021/09/12 01:23:06;;;;;;;10.02;7.00;;;22.60;47.90;;;;;;4249408;28;20044;-56
2021/09/12 01:25:09;;;;;;;11.50;7.15;;;22.60;47.70;;;;;;4249389;28;20095;-56
2021/09/12 01:27:11;;;;;;;10.52;6.82;;;22.60;47.60;;;;;;4231501;28;20047;-56
2021/09/12 01:29:14;;;;;;;9.77;6.80;;;22.70;47.80;;;;;;4248798;28;20050;-56
2021/09/12 01:31:21;;;;;;;13.40;6.43;;;22.60;47.50;;;;;;4248848;28;20039;-56
2021/09/12 01:33:24;;;;;;;11.30;7.07;;;22.60;47.60;;;;;;4249112;28;20073;-56
2021/09/12 01:35:26;;;;;;;9.82;7.28;;;22.60;47.60;;;;;;4249125;28;20206;-55
2021/09/12 01:37:28;;;;;;;12.93;6.65;;;22.60;47.60;;;;;;4249129;28;20095;-53
2021/09/12 01:39:30;;;;;;;9.13;6.68;;;22.60;47.50;;;;;;4249146;28;20054;-55
2021/09/12 01:41:33;;;;;;;9.80;5.97;;;22.60;47.50;;;;;;4231227;28;20048;-55
2021/09/12 01:43:35;;;;;;;11.02;6.85;;;22.60;47.50;;;;;;4248965;28;20048;-54
2021/09/12 01:45:37;;;;;;;10.68;6.40;;;22.60;47.50;;;;;;4248338;28;20071;-55
2021/09/12 01:47:40;;;;;;;12.48;6.95;;;22.60;47.20;;;;;;4248984;28;20088;-54
2021/09/12 01:49:43;;;;;;;14.45;7.15;;;22.60;47.40;;;;;;4249014;28;20039;-55
2021/09/12 01:51:46;;;;;;;10.70;7.20;;;22.60;47.20;;;;;;4249123;28;20052;-56
2021/09/12 01:53:48;;;;;;;10.77;7.15;;;22.60;47.20;;;;;;4248805;28;20039;-55
2021/09/12 01:55:50;;;;;;;12.80;6.70;;;22.60;47.20;;;;;;4248573;28;20091;-54
2021/09/12 01:57:53;;;;;;;10.88;7.30;;;22.60;48.00;;;;;;4248821;28;20046;-55
2021/09/12 01:59:55;;;;;;;12.25;6.95;;;22.60;47.70;;;;;;4231180;28;20108;-56
2021/09/12 02:01:57;;;;;;;14.27;7.15;;;22.60;47.30;;;;;;4248847;28;20066;-57
2021/09/12 02:07:12;;;;;;;12.63;7.20;;;22.60;47.90;;;;;;4188101;22;20061;-61
2021/09/12 02:09:14;;;;;;;13.85;6.53;;;22.60;48.50;;;;;;4181808;28;20128;-60
2021/09/12 02:11:16;;;;;;;15.88;6.82;;;22.60;47.80;;;;;;4181721;28;20055;-59
2021/09/12 02:13:18;;;;;;;11.27;6.90;;;22.60;47.60;;;;;;4164673;28;20049;-59
2021/09/12 02:15:20;;;;;;;10.25;6.45;;;22.60;47.40;;;;;;4181806;28;20061;-59
2021/09/12 02:17:23;;;;;;;9.85;6.80;;;22.60;47.30;;;;;;4181865;28;20072;-58
2021/09/12 02:19:25;;;;;;;11.27;6.60;;;22.60;47.20;;;;;;4181397;28;20042;-62
2021/09/12 02:21:27;;;;;;;9.18;6.50;;;22.50;47.00;;;;;;4181671;28;20041;-61
2021/09/12 02:23:29;;;;;;;12.00;7.30;;;22.60;47.10;;;;;;4181402;28;20100;-61
2021/09/12 02:25:32;;;;;;;11.50;6.60;;;22.50;47.10;;;;;;4181289;28;20061;-61
2021/09/12 02:27:34;;;;;;;10.18;6.50;;;22.50;47.00;;;;;;4181656;28;20038;-60
2021/09/12 02:29:36;;;;;;;10.25;6.55;;;22.50;47.00;;;;;;4181550;28;20101;-60
2021/09/12 02:31:38;;;;;;;10.68;6.97;;;22.50;46.90;;;;;;4181627;28;20060;-60
2021/09/12 02:33:39;;;;;;;8.68;7.03;;;22.50;46.80;;;;;;4181809;28;20541;-61
2021/09/12 02:35:42;;;;;;;9.65;7.03;;;22.50;46.80;;;;;;4181838;28;20055;-61
2021/09/12 02:37:44;;;;;;;12.52;7.47;;;22.50;46.80;;;;;;4181640;28;20041;-61
2021/09/12 02:39:45;;;;;;;11.25;6.90;;;22.50;46.80;;;;;;4164093;28;20617;-61
2021/09/12 02:41:47;;;;;;;9.40;6.40;;;22.50;46.80;;;;;;4182220;28;20049;-61
2021/09/12 02:43:50;;;;;;;11.80;7.53;;;22.50;46.70;;;;;;4184662;28;20101;-61
2021/09/12 02:45:52;;;;;;;13.50;6.97;;;22.50;46.70;;;;;;4184956;28;20045;-61
2021/09/12 02:47:54;;;;;;;11.48;7.03;;;22.50;46.70;;;;;;4184878;28;20112;-62
2021/09/12 02:49:56;;;;;;;9.80;6.95;;;22.50;46.70;;;;;;4184753;28;20105;-61
2021/09/12 02:51:58;;;;;;;10.02;7.20;;;22.50;46.60;;;;;;4167600;28;20068;-61
2021/09/12 02:54:00;;;;;;;11.95;7.78;;;22.50;46.70;;;;;;4183472;28;20037;-62
2021/09/12 02:56:02;;;;;;;11.25;6.90;;;22.50;46.60;;;;;;4183799;28;20105;-61
2021/09/12 02:58:04;;;;;;;9.32;7.13;;;22.50;46.70;;;;;;4184787;28;20056;-60
2021/09/12 03:00:06;;;;;;;12.70;6.60;;;22.50;46.60;;;;;;4184684;28;20048;-60
2021/09/12 03:02:08;;;;;;;8.35;6.28;;;22.50;46.60;;;;;;4184489;28;20050;-60
2021/09/12 03:04:10;;;;;;;8.32;6.38;;;22.50;46.60;;;;;;4184256;28;20068;-60
2021/09/12 03:06:12;;;;;;;8.82;6.30;;;22.50;46.60;;;;;;4183775;28;20097;-60
2021/09/12 03:08:14;;;;;;;16.55;6.70;;;22.50;46.60;;;;;;4184710;28;20065;-61
2021/09/12 03:10:16;;;;;;;11.10;6.95;;;22.50;46.60;;;;;;4184328;28;20089;-60
2021/09/12 03:12:19;;;;;;;11.15;7.30;;;22.50;46.60;;;;;;4184433;28;20072;-60
2021/09/12 03:14:21;;;;;;;11.73;7.00;;;22.50;46.50;;;;;;4184419;28;20042;-61
2021/09/12 03:16:24;;;;;;;13.05;6.90;;;22.50;46.50;;;;;;4195086;28;20573;-60
2021/09/12 03:18:26;;;;;;;10.18;6.55;;;22.50;46.60;;;;;;4201123;28;20048;-60
2021/09/12 03:20:28;;;;;;;7.80;6.07;;;22.40;46.50;;;;;;4200251;28;20092;-60
2021/09/12 03:22:30;;;;;;;11.07;6.97;;;22.50;46.50;;;;;;4184071;28;20080;-60
2021/09/12 03:24:32;;;;;;;11.90;6.80;;;22.40;46.50;;;;;;4184043;28;20101;-61
2021/09/12 03:26:34;;;;;;;12.05;7.65;;;22.50;46.60;;;;;;4184124;28;20120;-63
2021/09/12 03:28:36;;;;;;;9.77;6.90;;;22.50;46.50;;;;;;4184461;28;20045;-63
2021/09/12 03:30:38;;;;;;;11.90;6.65;;;22.50;46.60;;;;;;4184292;28;20041;-63
2021/09/12 03:32:40;;;;;;;19.10;7.15;;;22.50;46.60;;;;;;4184216;28;20045;-63
2021/09/12 03:34:43;;;;;;;10.10;7.20;;;22.40;46.60;;;;;;4183703;28;20045;-63
2021/09/12 03:36:44;;;;;;;11.77;7.47;;;22.50;46.50;;;;;;4183599;28;20109;-63
2021/09/12 03:38:47;;;;;;;9.70;6.78;;;22.50;46.40;;;;;;4184133;28;20073;-63
2021/09/12 03:40:49;;;;;;;9.48;6.65;;;22.50;46.30;;;;;;4184141;28;20037;-62
2021/09/12 03:42:51;;;;;;;11.35;7.28;;;22.50;46.30;;;;;;4183815;28;20046;-63
2021/09/12 03:44:53;;;;;;;9.18;6.60;;;22.50;46.20;;;;;;4183891;28;20065;-60
2021/09/12 03:46:55;;;;;;;11.00;6.88;;;22.50;46.20;;;;;;4183859;28;20048;-60
2021/09/12 03:48:57;;;;;;;10.45;6.72;;;22.50;46.80;;;;;;4183888;28;20116;-62
2021/09/12 03:50:59;;;;;;;14.40;6.75;;;22.50;46.20;;;;;;4183964;28;20045;-63
2021/09/12 03:53:02;;;;;;;10.95;7.03;;;22.50;46.20;;;;;;4183478;28;20101;-63
2021/09/12 03:55:04;;;;;;;10.80;6.53;;;22.50;46.20;;;;;;4183615;28;20101;-60
2021/09/12 03:57:06;;;;;;;12.88;6.65;;;22.50;46.20;;;;;;4183751;28;20064;-61
2021/09/12 03:59:08;;;;;;;11.50;6.32;;;22.50;46.20;;;;;;4183735;28;20045;-62
2021/09/12 04:01:10;;;;;;;20.27;7.60;;;22.50;46.30;;;;;;4183919;28;20105;-59
2021/09/12 04:03:14;;;;;;;13.75;6.53;;;22.40;47.60;;;;;;4183754;28;20045;-57
2021/09/12 04:05:16;;;;;;;16.70;6.33;;;22.40;47.80;;;;;;4183979;28;20093;-57
2021/09/12 04:07:18;;;;;;;27.23;7.40;;;22.50;48.90;;;;;;4183396;28;20101;-54
2021/09/12 04:09:20;;;;;;;17.70;6.90;;;22.50;47.60;;;;;;4183612;28;20071;-52
2021/09/12 04:11:22;;;;;;;19.02;7.07;;;22.50;47.20;;;;;;4183410;28;20061;-55
2021/09/12 04:13:24;;;;;;;15.45;6.78;;;22.40;46.70;;;;;;4183402;28;20178;-53
2021/09/12 04:15:26;;;;;;;13.20;6.75;;;22.40;46.50;;;;;;4183689;28;20068;-54
2021/09/12 04:17:28;;;;;;;14.80;7.22;;;22.40;46.50;;;;;;4183447;28;20100;-55
2021/09/12 04:19:30;;;;;;;21.52;6.82;;;22.40;46.40;;;;;;4183402;28;20046;-53
2021/09/12 04:21:32;;;;;;;13.75;6.65;;;22.40;46.30;;;;;;4183401;28;20071;-53
2021/09/12 04:23:34;;;;;;;15.65;7.28;;;22.40;46.30;;;;;;4183318;28;20042;-54
2021/09/12 04:25:36;;;;;;;11.57;6.68;;;22.40;46.30;;;;;;4183508;28;20071;-53
2021/09/12 04:27:38;;;;;;;11.38;6.78;;;22.40;46.30;;;;;;4183311;28;20043;-53
2021/09/12 04:29:41;;;;;;;10.38;7.03;;;22.40;46.30;;;;;;4183328;28;20042;-53
2021/09/12 04:31:43;;;;;;;12.35;6.78;;;22.40;46.30;;;;;;4183164;28;20093;-56
2021/09/12 04:33:45;;;;;;;11.93;7.07;;;22.40;46.20;;;;;;4183140;28;20069;-56
2021/09/12 04:35:47;;;;;;;10.73;6.72;;;22.40;46.20;;;;;;4183388;28;20049;-55
2021/09/12 04:37:49;;;;;;;10.18;6.70;;;22.40;46.20;;;;;;4183361;28;20102;-56
2021/09/12 04:39:51;;;;;;;10.50;7.03;;;22.40;46.10;;;;;;4183162;28;20042;-54
2021/09/12 04:41:53;;;;;;;14.32;7.50;;;22.30;46.20;;;;;;4183031;28;20053;-55
2021/09/12 04:43:55;;;;;;;12.23;6.75;;;22.40;46.10;;;;;;4181906;28;20093;-56
2021/09/12 04:45:57;;;;;;;9.00;6.25;;;22.30;46.10;;;;;;4182006;28;20060;-50
2021/09/12 04:47:59;;;;;;;12.13;6.40;;;22.30;46.10;;;;;;4182187;28;20038;-54
2021/09/12 04:50:01;;;;;;;11.27;6.75;;;22.30;46.10;;;;;;4181895;28;20088;-54
2021/09/12 04:52:04;;;;;;;14.07;6.47;;;22.30;46.10;;;;;;4181740;28;20050;-55
2021/09/12 04:54:06;;;;;;;14.88;8.02;;;22.30;46.10;;;;;;4182015;28;20050;-56
2021/09/12 04:56:08;;;;;;;13.45;7.10;;;22.30;46.00;;;;;;4182321;28;20104;-55
2021/09/12 04:58:10;;;;;;;12.00;7.75;;;22.30;46.00;;;;;;4182698;28;20417;-57
2021/09/12 05:00:12;;;;;;;12.93;7.05;;;22.30;46.00;;;;;;4182840;28;20120;-57
2021/09/12 05:02:14;;;;;;;12.32;6.68;;;22.30;46.00;;;;;;4182778;28;20045;-57
2021/09/12 05:04:16;;;;;;;10.88;6.90;;;22.30;46.00;;;;;;4181989;28;20038;-58
2021/09/12 05:06:18;;;;;;;11.88;6.80;;;22.30;46.00;;;;;;4182499;28;20041;-58
2021/09/12 05:08:20;;;;;;;12.07;6.45;;;22.30;46.00;;;;;;4182788;28;20072;-57
2021/09/12 05:10:23;;;;;;;10.82;6.55;;;22.30;46.00;;;;;;4182695;28;20069;-58
2021/09/12 05:12:27;;;;;;;11.95;7.35;;;22.30;46.00;;;;;;4182385;28;20073;-58
2021/09/12 05:14:29;;;;;;;14.25;7.68;;;22.30;46.00;;;;;;4182441;28;20049;-57
2021/09/12 05:16:31;;;;;;;9.82;6.20;;;22.30;46.00;;;;;;4182705;28;20510;-57
2021/09/12 05:18:34;;;;;;;11.80;6.85;;;22.30;45.90;;;;;;4182575;28;20053;-58
2021/09/12 05:20:37;;;;;;;13.80;7.45;;;22.30;45.90;;;;;;4182712;28;20052;-58
2021/09/12 05:22:39;;;;;;;13.90;6.45;;;22.30;45.90;;;;;;4182648;28;20105;-58
2021/09/12 05:24:41;;;;;;;15.27;7.38;;;22.30;46.50;;;;;;4182249;28;20052;-56
2021/09/12 05:26:43;;;;;;;18.63;7.28;;;22.30;46.80;;;;;;4182412;28;20117;-55
2021/09/12 05:28:45;;;;;;;14.27;7.72;;;22.20;46.50;;;;;;4182360;28;20065;-56
2021/09/12 05:30:47;;;;;;;13.77;7.07;;;22.10;46.30;;;;;;4182300;28;20101;-57
2021/09/12 05:32:50;;;;;;;19.80;8.25;;;22.10;46.30;;;;;;4181586;28;20045;-57
2021/09/12 05:34:52;;;;;;;16.77;8.38;;;22.10;46.10;;;;;;4182444;28;20071;-58
2021/09/12 05:36:54;;;;;;;16.15;7.82;;;22.00;46.20;;;;;;4182111;28;20093;-58
2021/09/12 05:38:56;;;;;;;17.95;8.02;;;22.00;46.30;;;;;;4182133;28;20052;-58
2021/09/12 05:40:59;;;;;;;14.63;7.70;;;22.00;46.30;;;;;;4182166;28;20097;-58
2021/09/12 05:43:01;;;;;;;19.00;8.43;;;22.00;46.70;;;;;;4182189;28;20084;-57
2021/09/12 05:45:05;;;;;;;18.65;8.15;;;22.00;46.70;;;;;;4182299;28;20052;-58
2021/09/12 05:47:07;;;;;;;17.80;9.07;;;21.90;46.90;;;;;;4182253;28;20102;-58
2021/09/12 05:49:09;;;;;;;15.57;7.80;;;21.90;46.90;;;;;;4182045;28;20373;-58
2021/09/12 05:51:11;;;;;;;17.63;8.93;;;21.90;46.90;;;;;;4182104;28;20041;-57
2021/09/12 05:53:14;;;;;;;15.00;7.68;;;21.90;46.70;;;;;;4182152;28;20045;-58
2021/09/12 05:55:16;;;;;;;17.77;7.53;;;21.90;46.80;;;;;;4182108;28;20065;-58
2021/09/12 05:57:18;;;;;;;19.50;8.40;;;21.90;46.90;;;;;;4182002;28;20061;-58
2021/09/12 05:59:20;;;;;;;17.05;8.23;;;21.90;46.70;;;;;;4181918;28;20037;-58
2021/09/12 06:01:22;;;;;;;21.05;7.85;;;21.90;46.60;;;;;;4181876;28;20093;-58
2021/09/12 06:03:24;;;;;;;12.27;7.20;;;21.80;46.70;;;;;;4181897;28;20101;-58
2021/09/12 06:05:27;;;;;;;18.52;7.65;;;21.70;46.90;;;;;;4181950;28;20048;-57
2021/09/12 06:07:30;;;;;;;16.85;8.25;;;21.70;46.90;;;;;;4181938;28;20083;-57
2021/09/12 06:09:32;;;;;;;11.68;7.85;;;21.70;46.80;;;;;;4181892;28;20068;-57
2021/09/12 06:11:34;;;;;;;15.85;7.88;;;21.70;46.90;;;;;;4182005;28;20057;-57
2021/09/12 06:13:39;;;;;;;16.58;7.85;;;21.70;47.10;;;;;;4181676;28;20041;-57
2021/09/12 06:15:41;;;;;;;23.15;8.77;;;21.70;46.80;;;;;;4181634;28;20104;-57
2021/09/12 06:17:43;;;;;;;15.15;7.70;;;21.70;46.70;;;;;;4181798;28;20207;-57
2021/09/12 06:19:45;;;;;;;18.33;7.38;;;21.70;46.80;;;;;;4181835;28;20097;-57
2021/09/12 06:21:47;;;;;;;13.05;7.75;;;21.70;46.60;;;;;;4182078;28;20055;-57
2021/09/12 06:23:49;;;;;;;14.48;9.05;;;21.60;46.70;;;;;;4181687;28;20479;-57
2021/09/12 06:25:51;;;;;;;23.20;7.55;;;21.60;46.80;;;;;;4181739;28;20072;-57
2021/09/12 06:27:53;;;;;;;13.65;7.43;;;21.50;46.60;;;;;;4181737;28;20044;-58
2021/09/12 06:29:55;;;;;;;20.23;7.60;;;21.60;46.60;;;;;;4181951;28;20072;-56
2021/09/12 06:31:57;;;;;;;21.67;8.30;;;21.60;46.70;;;;;;4181940;28;20093;-57
2021/09/12 06:33:59;;;;;;;22.05;7.50;;;21.60;46.60;;;;;;4182100;28;20042;-57
2021/09/12 06:36:01;;;;;;;23.13;7.93;;;21.60;46.80;;;;;;4181958;28;20096;-57
2021/09/12 06:38:03;;;;;;;18.73;7.40;;;21.70;47.10;;;;;;4181949;28;20238;-57
2021/09/12 06:40:06;;;;;;;17.10;8.02;;;21.70;47.40;;;;;;4181824;28;20049;-57
2021/09/12 06:42:08;;;;;;;24.17;7.85;;;21.70;47.60;;;;;;4182164;28;20605;-57
2021/09/12 06:44:10;;;;;;;25.25;7.90;;;21.70;47.10;;;;;;4182062;28;20101;-57
2021/09/12 06:46:12;;;;;;;23.05;7.78;;;21.70;47.20;;;;;;4182066;28;20047;-57
2021/09/12 06:48:14;;;;;;;26.83;8.10;;;21.70;46.90;;;;;;4181993;28;20069;-56
2021/09/12 06:50:17;;;;;;;20.35;8.07;;;21.70;47.10;;;;;;4182065;28;20061;-57
2021/09/12 06:52:19;;;;;;;29.42;7.93;;;21.70;47.50;;;;;;4182076;28;20072;-56
2021/09/12 06:54:20;;;;;;;13.73;7.78;;;21.80;47.10;;;;;;4182206;28;20076;-57
2021/09/12 06:56:22;;;;;;;30.50;8.15;;;21.70;47.20;;;;;;4181958;28;20101;-57
2021/09/12 06:58:24;;;;;;;23.55;8.57;;;21.80;47.20;;;;;;4181991;28;20052;-57
2021/09/12 07:00:26;;;;;;;19.45;8.25;;;21.70;47.50;;;;;;4181919;28;20052;-57
2021/09/12 07:02:29;;;;;;;18.10;7.43;;;21.70;48.10;;;;;;4182012;28;20046;-58
2021/09/12 07:04:31;;;;;;;21.92;8.70;;;21.80;47.40;;;;;;4181496;28;20097;-58
2021/09/12 07:06:33;;;;;;;36.63;10.43;;;21.80;47.40;;;;;;4181381;28;20048;-58
2021/09/12 07:08:36;;;;;;;31.05;8.43;;;21.90;47.30;;;;;;4181524;28;20049;-57
2021/09/12 07:10:38;;;;;;;29.85;9.00;;;21.90;47.30;;;;;;4181696;28;20065;-58
2021/09/12 07:12:40;;;;;;;24.63;7.50;;;21.90;47.20;;;;;;4181544;28;20097;-57
2021/09/12 07:14:43;;;;;;;21.92;7.93;;;22.00;47.10;;;;;;4181629;28;20046;-57
2021/09/12 07:16:45;;;;;;;25.50;7.10;;;22.00;47.20;;;;;;4181696;28;20106;-58
2021/09/12 07:18:47;;;;;;;16.60;7.95;;;22.00;46.80;;;;;;4181389;28;20069;-57
2021/09/12 07:20:49;;;;;;;17.13;7.97;;;22.00;46.70;;;;;;4181492;28;20124;-57
2021/09/12 07:22:51;;;;;;;19.35;7.75;;;22.00;46.70;;;;;;4181467;28;20100;-57
2021/09/12 07:24:53;;;;;;;17.45;8.80;;;22.00;46.80;;;;;;4181292;28;20045;-58
2021/09/12 07:26:56;;;;;;;16.63;7.82;;;22.00;46.30;;;;;;4181506;28;20097;-55
2021/09/12 07:28:58;;;;;;;18.77;7.80;;;22.00;46.30;;;;;;4183606;28;20038;-55
2021/09/12 07:31:00;;;;;;;13.63;7.70;;;22.00;46.30;;;;;;4184278;28;20610;-57
2021/09/12 07:33:02;;;;;;;15.98;8.55;;;22.00;46.70;;;;;;4184199;28;20072;-57
2021/09/12 07:35:05;;;;;;;13.82;8.57;;;22.00;46.60;;;;;;4184109;28;20387;-57
2021/09/12 07:37:07;;;;;;;25.38;8.65;;;22.00;46.70;;;;;;4184279;28;20073;-57
2021/09/12 07:39:09;;;;;;;18.90;9.05;;;22.00;46.90;;;;;;4184292;28;20073;-56
2021/09/12 07:41:12;;;;;;;18.92;8.63;;;22.00;46.70;;;;;;4183149;28;20057;-56
2021/09/12 07:43:14;;;;;;;13.18;7.22;;;22.00;46.80;;;;;;4183922;28;20042;-56
2021/09/12 07:45:16;;;;;;;14.93;7.57;;;22.00;46.90;;;;;;4183980;28;20065;-56
2021/09/12 07:47:18;;;;;;;19.92;8.20;;;22.00;47.00;;;;;;4184070;28;20080;-56
2021/09/12 07:49:20;;;;;;;13.05;8.13;;;22.10;47.30;;;;;;4184083;28;20093;-56
2021/09/12 07:51:22;;;;;;;16.92;8.95;;;22.00;47.20;;;;;;4183831;28;20037;-56
2021/09/12 07:53:24;;;;;;;16.80;7.22;;;22.10;47.30;;;;;;4183961;28;20093;-55
2021/09/12 07:55:26;;;;;;;14.55;7.80;;;22.10;47.20;;;;;;4183855;28;20100;-56
2021/09/12 07:57:28;;;;;;;27.23;9.82;;;22.10;47.00;;;;;;4183764;28;20041;-54
2021/09/12 07:59:30;;;;;;;17.00;8.35;;;22.10;47.10;;;;;;4182995;28;20041;-55
2021/09/12 08:01:32;;;;;;;17.00;8.57;;;22.10;47.20;;;;;;4183755;28;20105;-56
2021/09/12 08:03:34;;;;;;;19.02;8.18;;;22.10;47.30;;;;;;4183504;28;20045;-56
2021/09/12 08:05:37;;;;;;;16.10;8.45;;;22.10;47.10;;;;;;4183603;28;20106;-56
2021/09/12 08:07:39;;;;;;;23.67;9.85;;;22.10;47.00;;;;;;4183570;28;20109;-56
2021/09/12 08:09:41;;;;;;;11.43;7.57;;;22.10;47.10;;;;;;4183724;28;20052;-56
2021/09/12 08:11:43;;;;;;;15.35;8.63;;;22.10;47.00;;;;;;4183752;28;20037;-56
2021/09/12 08:13:45;;;;;;;11.50;7.90;;;22.10;47.20;;;;;;4183489;28;20104;-56
2021/09/12 08:15:47;;;;;;;14.77;8.88;;;22.10;47.20;;;;;;4183467;28;20038;-57
2021/09/12 08:17:50;;;;;;;17.30;8.55;;;22.10;47.20;;;;;;4183404;28;20042;-57
2021/09/12 08:19:52;;;;;;;13.88;8.43;;;22.10;47.10;;;;;;4183378;28;20044;-56
2021/09/12 08:21:54;;;;;;;13.40;8.25;;;22.10;47.30;;;;;;4183554;28;20041;-57
2021/09/12 08:23:56;;;;;;;17.15;8.02;;;22.10;47.30;;;;;;4183360;28;20080;-55
2021/09/12 08:25:58;;;;;;;18.27;8.75;;;22.10;47.10;;;;;;4183331;28;20042;-56
2021/09/12 08:28:00;;;;;;;20.98;8.85;;;22.10;47.30;;;;;;4183238;28;20041;-56
2021/09/12 08:30:03;;;;;;;17.80;9.05;;;22.10;47.30;;;;;;4165837;28;20042;-56
2021/09/12 08:32:06;;;;;;;15.43;8.02;;;22.10;47.30;;;;;;4182432;28;20050;-55
2021/09/12 08:34:08;;;;;;;17.65;8.90;;;22.10;47.40;;;;;;4182633;28;20120;-57
2021/09/12 08:36:10;;;;;;;20.60;8.38;;;22.20;47.40;;;;;;4183013;28;20093;-56
2021/09/12 08:38:13;;;;;;;17.63;8.15;;;22.10;47.60;;;;;;4182935;28;20076;-56
2021/09/12 08:40:15;;;;;;;21.08;8.20;;;22.10;47.80;;;;;;4182815;28;20056;-56
2021/09/12 08:42:18;;;;;;;12.65;7.60;;;22.20;48.00;;;;;;4182912;28;20069;-56
2021/09/12 08:44:20;;;;;;;17.58;8.07;;;22.10;48.30;;;;;;4182765;28;20045;-55
2021/09/12 08:46:22;;;;;;;14.63;7.78;;;22.20;48.30;;;;;;4183161;28;20047;-57
2021/09/12 08:48:24;;;;;;;16.35;7.85;;;22.20;48.30;;;;;;4183034;28;20052;-57
2021/09/12 08:50:26;;;;;;;18.27;7.78;;;22.20;48.30;;;;;;4183047;28;20089;-56
2021/09/12 08:52:29;;;;;;;11.80;7.93;;;22.10;48.80;;;;;;4182984;28;20136;-56
2021/09/12 08:54:31;;;;;;;25.45;8.68;;;22.20;48.20;;;;;;4183016;28;20069;-57
2021/09/12 08:56:33;;;;;;;18.17;8.65;;;22.20;48.70;;;;;;4183177;28;20072;-58
2021/09/12 08:58:35;;;;;;;29.77;8.65;;;22.20;48.60;;;;;;4165735;28;20109;-57
2021/09/12 09:00:43;;;;;;;22.17;8.43;;;22.20;48.70;;;;;;4182833;28;20105;-57
2021/09/12 09:02:46;;;;;;;13.93;7.45;;;22.20;48.40;;;;;;4182886;28;20049;-55
2021/09/12 09:04:49;;;;;;;15.25;7.97;;;22.20;48.80;;;;;;4182790;28;20128;-56
2021/09/12 09:07:06;;;;;;;16.02;6.43;;;22.20;48.60;;;;;;4182568;28;20049;-56
2021/09/12 09:09:08;;;;;;;20.55;8.05;;;22.20;48.50;;;;;;4182896;28;20474;-56
2021/09/12 09:11:10;;;;;;;19.80;8.02;;;22.30;48.80;;;;;;4182768;28;20056;-57
2021/09/12 09:13:33;;;;;;;14.70;8.82;;;22.20;48.70;;;;;;4182798;28;20093;-56
2021/09/12 09:15:40;;;;;;;24.30;7.95;;;22.30;48.80;;;;;;4182617;28;20050;-56
2021/09/12 09:17:51;;;;;;;20.70;9.20;;;22.30;48.60;;;;;;4182665;28;20075;-57
2021/09/12 09:19:54;;;;;;;17.05;9.07;;;22.30;48.60;;;;;;4182551;28;20049;-56
2021/09/12 09:21:56;;;;;;;17.65;9.63;;;22.30;48.70;;;;;;4182522;28;20105;-56
2021/09/12 09:24:10;;;;;;;33.45;10.30;;;22.30;48.70;;;;;;4182559;28;20049;-56
2021/09/12 09:26:21;;;;;;;22.67;10.95;;;22.30;48.60;;;;;;4182499;28;20121;-56
2021/09/12 09:28:24;;;;;;;28.20;10.75;;;22.40;48.90;;;;;;4182501;28;20065;-57
2021/09/12 09:30:57;;;;;;;27.95;10.80;;;22.40;48.90;;;;;;4182526;28;20038;-56
2021/09/12 09:33:26;;;;;;;27.52;11.10;;;22.40;48.90;;;;;;4182373;28;20115;-54
2021/09/12 09:35:27;;;;;;;22.15;9.75;;;22.40;50.00;;;;;;4182328;28;20097;-56
2021/09/12 09:37:29;;;;;;;34.15;12.65;;;22.40;49.90;;;;;;4182411;28;20069;-56
2021/09/12 09:39:41;;;;;;;29.02;11.43;;;22.40;50.40;;;;;;4182293;28;20045;-56
2021/09/12 09:41:43;;;;;;;27.70;11.55;;;22.40;50.50;;;;;;4182367;28;20097;-57
2021/09/12 09:43:52;;;;;;;21.42;10.52;;;22.40;51.70;;;;;;4182145;28;20063;-57
2021/09/12 09:45:54;;;;;;;23.10;10.85;;;22.50;51.20;;;;;;4182156;28;20097;-57
2021/09/12 09:47:57;;;;;;;23.00;10.95;;;22.50;51.20;;;;;;4182284;28;20045;-57
2021/09/12 09:50:19;;;;;;;20.38;11.15;;;22.50;51.10;;;;;;4182009;28;20053;-57
2021/09/12 09:52:21;;;;;;;23.02;11.45;;;22.50;52.10;;;;;;4182114;28;20097;-58
2021/09/12 09:54:25;;;;;;;29.60;12.57;;;22.50;53.10;;;;;;4182172;28;20124;-58
2021/09/12 09:56:29;;;;;;;38.80;13.07;;;22.60;53.60;;;;;;4182089;28;20051;-57
2021/09/12 09:58:34;;;;;;;26.77;13.47;;;22.60;54.40;;;;;;4165061;28;20046;-57
2021/09/12 10:00:37;;;;;;;24.67;12.32;;;22.60;54.70;;;;;;4182276;28;20045;-57
2021/09/12 10:02:39;;;;;;;26.05;13.20;;;22.60;55.30;;;;;;4182153;28;20037;-56
2021/09/12 10:04:42;;;;;;;21.17;12.55;;;22.70;55.60;;;;;;4181967;28;20068;-56
2021/09/12 10:06:46;;;;;;;27.80;13.38;;;22.70;56.70;;;;;;4164443;28;20046;-56
2021/09/12 10:08:49;;;;;;;28.63;13.85;;;22.70;57.50;;;;;;4180458;28;20072;-56
2021/09/12 10:10:53;;;;;;;29.92;13.02;;;22.70;58.50;;;;;;4163759;28;20102;-56
2021/09/12 10:13:00;;;;;;;34.40;13.18;;;22.70;58.90;;;;;;4180748;28;20041;-58
2021/09/12 10:15:12;;;;;;;33.88;14.18;;;22.70;59.10;;;;;;4041577;28;10001832;-56
2021/09/12 10:17:15;;;;;;;26.20;14.10;;;22.80;59.20;;;;;;4163943;28;20356;-57
2021/09/12 10:19:34;;;;;;;26.10;12.63;;;22.80;58.80;;;;;;4163974;28;20088;-56
2021/09/12 10:21:36;;;;;;;27.42;13.98;;;22.80;58.60;;;;;;4164202;28;20058;-56
2021/09/12 10:23:46;;;;;;;29.25;14.18;;;22.80;59.00;;;;;;4164060;28;20080;-57
2021/09/12 10:25:48;;;;;;;25.00;13.55;;;22.80;59.30;;;;;;4163995;28;20068;-57
2021/09/12 10:28:06;;;;;;;29.40;14.13;;;22.80;59.00;;;;;;4163903;28;20074;-57
2021/09/12 10:30:24;;;;;;;30.30;14.23;;;22.90;58.10;;;;;;4163817;28;20102;-57
2021/09/12 10:32:35;;;;;;;25.30;12.73;;;22.80;57.60;;;;;;4163275;28;20125;-57
2021/09/12 10:35:17;;;;;;;27.33;13.73;;;22.80;57.50;;;;;;4162682;28;20114;-58